createdAt,value
2023-03-24T00:01:27.469Z,97547.04
2023-03-24T00:03:55.645Z,97547.02
2023-03-24T00:06:24.100Z,97544.93
2023-03-24T00:08:53.501Z,97549.44
2023-03-24T00:11:21.748Z,97551.52
2023-03-24T00:13:50.873Z,97550.83
2023-03-24T00:16:22.181Z,97549.10
2023-03-24T00:18:54.048Z,97543.04
2023-03-24T00:21:24.881Z,97538.36
2023-03-24T00:23:55.664Z,97536.98
2023-03-24T00:26:25.758Z,97538.06
2023-03-24T00:28:55.867Z,97539.48
2023-03-24T00:31:25.137Z,97537.96
2023-03-24T00:33:54.421Z,97539.55
2023-03-24T00:36:25.985Z,97536.80
2023-03-24T00:38:56.910Z,97535.77
2023-03-24T00:41:27.277Z,97534.74
2023-03-24T00:43:58.797Z,97534.58
2023-03-24T00:46:27.813Z,97535.96
2023-03-24T00:49:06.221Z,97533.36
2023-03-24T00:51:38.798Z,97528.52
2023-03-24T00:54:09.431Z,97526.79
2023-03-24T00:56:40.840Z,97528.38
2023-03-24T00:59:10.986Z,97529.42
2023-03-24T01:01:41.501Z,97529.80
2023-03-24T01:04:10.712Z,97530.68
2023-03-24T01:06:41.300Z,97531.40
2023-03-24T01:09:10.786Z,97533.52
2023-03-24T01:11:41.767Z,97537.02
2023-03-24T01:14:11.857Z,97536.38
2023-03-24T01:16:42.370Z,97535.70
2023-03-24T01:19:10.623Z,97534.86
2023-03-24T01:21:39.694Z,97537.13
2023-03-24T01:24:08.520Z,97534.69
2023-03-24T01:26:36.909Z,97530.35
2023-03-24T01:29:06.282Z,97525.15
2023-03-24T01:31:35.097Z,97521.99
2023-03-24T01:34:03.577Z,97519.05
2023-03-24T01:36:31.826Z,97519.90
2023-03-24T01:39:01.525Z,97521.29
2023-03-24T01:41:35.156Z,97519.21
2023-03-24T01:44:40.950Z,97520.62
2023-03-24T01:47:09.135Z,97523.77
2023-03-24T01:49:46.373Z,97518.06
2023-03-24T01:52:19.551Z,97519.48
2023-03-24T01:54:53.361Z,97523.34
2023-03-24T01:57:26.754Z,97521.98
2023-03-24T01:59:59.076Z,97517.66
2023-03-24T02:02:49.664Z,97517.85
2023-03-24T02:05:23.338Z,97516.50
2023-03-24T02:08:30.719Z,97520.69
2023-03-24T02:11:01.463Z,97524.66
2023-03-24T02:13:36.627Z,97522.58
2023-03-24T02:16:19.965Z,97524.16
2023-03-24T02:18:52.947Z,97522.09
2023-03-24T02:21:42.447Z,97526.27
2023-03-24T02:24:38.516Z,97533.08
2023-03-24T02:27:19.295Z,97539.55
2023-03-24T02:29:50.681Z,97539.40
2023-03-24T02:32:36.160Z,97543.75
2023-03-24T02:35:22.361Z,97539.45
2023-03-24T02:38:03.528Z,97534.29
2023-03-24T02:40:49.536Z,97535.18
2023-03-24T02:43:46.724Z,97535.91
2023-03-24T02:46:24.506Z,97532.64
2023-03-24T02:49:09.821Z,97532.65
2023-03-24T02:52:00.105Z,97533.18
2023-03-24T02:54:50.591Z,97539.25
2023-03-24T02:57:43.003Z,97542.55
2023-03-24T03:00:42.341Z,97546.19
2023-03-24T03:03:19.770Z,97546.19
2023-03-24T03:06:03.294Z,97542.91
2023-03-24T03:08:34.102Z,97542.23
2023-03-24T03:11:05.758Z,97541.90
2023-03-24T03:13:44.703Z,97540.52
2023-03-24T03:16:41.532Z,97541.41
2023-03-24T03:19:18.224Z,97541.95
2023-03-24T03:21:49.765Z,97544.55
2023-03-24T03:24:27.330Z,97545.96
2023-03-24T03:27:08.569Z,97547.71
2023-03-24T03:29:43.545Z,97544.95
2023-03-24T03:32:18.239Z,97547.55
2023-03-24T03:34:55.770Z,97545.48
2023-03-24T03:37:32.884Z,97542.36
2023-03-24T03:40:12.339Z,97541.48
2023-03-24T03:42:43.460Z,97542.70
2023-03-24T03:45:12.680Z,97548.06
2023-03-24T03:47:41.669Z,97548.75
2023-03-24T03:50:10.918Z,97546.16
2023-03-24T03:52:40.273Z,97540.45
2023-03-24T03:55:09.662Z,97542.20
2023-03-24T03:57:39.403Z,97542.02
2023-03-24T04:00:20.586Z,97542.73
2023-03-24T04:03:18.410Z,97541.34
2023-03-24T04:06:13.962Z,97542.73
2023-03-24T04:08:51.648Z,97544.11
2023-03-24T04:11:40.760Z,97542.91
2023-03-24T04:14:20.886Z,97541.16
2023-03-24T04:17:21.239Z,97542.04
2023-03-24T04:20:21.308Z,97540.81
2023-03-24T04:23:03.340Z,97545.84
2023-03-24T04:25:50.911Z,97545.31
2023-03-24T04:28:28.385Z,97545.14
2023-03-24T04:31:23.663Z,97546.54
2023-03-24T04:33:58.509Z,97548.61
2023-03-24T04:36:56.745Z,97550.70
2023-03-24T04:39:29.967Z,97554.52
2023-03-24T04:42:04.864Z,97555.90
2023-03-24T04:44:34.455Z,97560.58
2023-03-24T04:47:27.175Z,97559.87
2023-03-24T04:50:11.752Z,97555.70
2023-03-24T04:52:42.683Z,97556.20
2023-03-24T04:55:49.761Z,97559.48
2023-03-24T04:58:23.356Z,97556.15
2023-03-24T05:00:52.134Z,97551.42
2023-03-24T05:03:20.413Z,97550.80
2023-03-24T05:05:50.797Z,97544.59
2023-03-24T05:08:21.031Z,97543.31
2023-03-24T05:10:49.798Z,97542.91
2023-03-24T05:13:18.007Z,97540.48
2023-03-24T05:16:01.696Z,97534.02
2023-03-24T05:18:42.278Z,97532.45
2023-03-24T05:21:10.728Z,97536.58
2023-03-24T05:23:39.463Z,97535.16
2023-03-24T05:26:08.139Z,97534.23
2023-03-24T05:28:44.669Z,97535.80
2023-03-24T05:31:13.490Z,97536.36
2023-03-24T05:33:57.877Z,97533.52
2023-03-24T05:36:29.169Z,97531.63
2023-03-24T05:38:59.063Z,97535.45
2023-03-24T05:41:36.311Z,97536.92
2023-03-24T05:44:04.480Z,97534.34
2023-03-24T05:46:32.739Z,97535.63
2023-03-24T05:49:02.322Z,97539.48
2023-03-24T05:51:36.363Z,97538.29
2023-03-24T05:54:07.610Z,97537.79
2023-03-24T05:56:42.380Z,97529.84
2023-03-24T05:59:31.902Z,97531.70
2023-03-24T06:02:38.021Z,97531.67
2023-03-24T06:05:13.655Z,97530.25
2023-03-24T06:07:46.633Z,97530.83
2023-03-24T06:10:18.404Z,97526.94
2023-03-24T06:12:53.782Z,97524.88
2023-03-24T06:15:24.615Z,97518.80
2023-03-24T06:17:55.471Z,97516.89
2023-03-24T06:20:32.065Z,97516.59
2023-03-24T06:23:12.864Z,97521.76
2023-03-24T06:25:56.305Z,97523.16
2023-03-24T06:28:30.650Z,97525.91
2023-03-24T06:31:01.131Z,97523.32
2023-03-24T06:33:37.318Z,97523.14
2023-03-24T06:36:06.937Z,97523.04
2023-03-24T06:38:35.922Z,97520.23
2023-03-24T06:41:05.859Z,97518.08
2023-03-24T06:43:34.375Z,97518.34
2023-03-24T06:46:02.647Z,97517.56
2023-03-24T06:48:33.995Z,97519.63
2023-03-24T06:51:04.686Z,97522.05
2023-03-24T06:53:33.188Z,97525.86
2023-03-24T06:56:01.948Z,97524.83
2023-03-24T06:58:36.015Z,97526.63
2023-03-24T07:01:09.667Z,97523.37
2023-03-24T07:03:48.516Z,97522.51
2023-03-24T07:06:26.304Z,97518.59
2023-03-24T07:08:58.133Z,97516.16
2023-03-24T07:11:28.747Z,97515.73
2023-03-24T07:14:01.140Z,97510.78
2023-03-24T07:16:30.794Z,97508.18
2023-03-24T07:19:11.507Z,97509.30
2023-03-24T07:21:41.173Z,97511.70
2023-03-24T07:24:09.643Z,97513.75
2023-03-24T07:26:51.601Z,97512.33
2023-03-24T07:29:23.013Z,97509.92
2023-03-24T07:32:10.372Z,97504.15
2023-03-24T07:34:39.612Z,97504.43
2023-03-24T07:37:08.095Z,97500.12
2023-03-24T07:39:36.438Z,97496.99
2023-03-24T07:42:06.232Z,97495.36
2023-03-24T07:44:43.315Z,97493.36
2023-03-24T07:47:13.436Z,97492.85
2023-03-24T07:49:41.757Z,97488.75
2023-03-24T07:52:12.117Z,97483.10
2023-03-24T07:54:44.501Z,97482.65
2023-03-24T07:57:20.769Z,97480.88
2023-03-24T07:59:49.372Z,97477.94
2023-03-24T08:02:25.442Z,97478.59
2023-03-24T08:05:18.872Z,97475.16
2023-03-24T08:08:10.104Z,97476.58
2023-03-24T08:10:38.665Z,97475.50
2023-03-24T08:13:07.050Z,97474.50
2023-03-24T08:15:35.404Z,97473.96
2023-03-24T08:18:04.333Z,97471.48
2023-03-24T08:20:32.684Z,97468.95
2023-03-24T08:23:05.022Z,97465.86
2023-03-24T08:25:35.359Z,97464.23
2023-03-24T08:28:04.624Z,97460.25
2023-03-24T08:30:33.467Z,97460.21
2023-03-24T08:33:03.561Z,97461.38
2023-03-24T08:35:34.743Z,97463.27
2023-03-24T08:38:06.579Z,97460.88
2023-03-24T08:40:36.825Z,97458.34
2023-03-24T08:43:10.184Z,97459.84
2023-03-24T08:45:38.660Z,97460.84
2023-03-24T08:48:08.824Z,97455.73
2023-03-24T08:50:41.129Z,97451.67
2023-03-24T08:53:12.553Z,97446.66
2023-03-24T08:55:43.498Z,97442.89
2023-03-24T08:58:18.424Z,97435.23
2023-03-24T09:00:48.763Z,97434.20
2023-03-24T09:03:23.017Z,97434.92
2023-03-24T09:05:51.666Z,97429.48
2023-03-24T09:08:20.480Z,97428.50
2023-03-24T09:10:49.333Z,97423.02
2023-03-24T09:13:18.945Z,97420.91
2023-03-24T09:15:50.221Z,97421.94
2023-03-24T09:18:20.247Z,97414.77
2023-03-24T09:20:48.770Z,97411.52
2023-03-24T09:23:18.040Z,97410.29
2023-03-24T09:25:48.646Z,97402.11
2023-03-24T09:28:17.316Z,97396.98
2023-03-24T09:30:45.769Z,97395.35
2023-03-24T09:33:14.095Z,97390.92
2023-03-24T09:35:42.575Z,97384.54
2023-03-24T09:38:13.665Z,97383.77
2023-03-24T09:40:43.754Z,97376.85
2023-03-24T09:43:34.202Z,97370.71
2023-03-24T09:46:05.336Z,97370.86
2023-03-24T09:48:33.815Z,97374.95
2023-03-24T09:51:13.654Z,97371.13
2023-03-24T09:54:09.522Z,97371.27
2023-03-24T09:56:39.942Z,97371.03
2023-03-24T09:59:16.322Z,97370.62
2023-03-24T10:01:45.636Z,97364.94
2023-03-24T10:04:21.407Z,97361.68
2023-03-24T10:06:57.605Z,97360.42
2023-03-24T10:09:32.126Z,97359.96
2023-03-24T10:12:19.073Z,97357.05
2023-03-24T10:15:16.215Z,97355.59
2023-03-24T10:18:35.035Z,97351.83
2023-03-24T10:21:22.807Z,97354.38
2023-03-24T10:24:06.147Z,97351.22
2023-03-24T10:27:03.057Z,97345.44
2023-03-24T10:29:36.096Z,97345.70
2023-03-24T10:32:12.672Z,97344.16
2023-03-24T10:34:44.922Z,97342.15
2023-03-24T10:37:16.576Z,97341.52
2023-03-24T10:39:45.386Z,97342.52
2023-03-24T10:42:18.988Z,97337.00
2023-03-24T10:44:49.990Z,97336.14
2023-03-24T10:47:24.497Z,97333.91
2023-03-24T10:50:14.090Z,97332.83
2023-03-24T10:52:48.963Z,97333.02
2023-03-24T10:55:19.956Z,97327.32
2023-03-24T10:57:53.829Z,97322.96
2023-03-24T11:00:30.138Z,97322.70
2023-03-24T11:03:07.089Z,97321.29
2023-03-24T11:05:39.390Z,97317.86
2023-03-24T11:08:23.087Z,97313.71
2023-03-24T11:10:51.613Z,97306.20
2023-03-24T11:13:22.928Z,97297.61
2023-03-24T11:16:06.032Z,97295.60
2023-03-24T11:18:34.753Z,97292.08
2023-03-24T11:21:05.452Z,97284.91
2023-03-24T11:23:39.442Z,97283.03
2023-03-24T11:26:16.935Z,97275.14
2023-03-24T11:28:53.521Z,97271.72
2023-03-24T11:31:31.285Z,97268.05
2023-03-24T11:34:10.146Z,97268.40
2023-03-24T11:36:45.344Z,97263.81
2023-03-24T11:39:28.815Z,97256.25
2023-03-24T11:42:02.706Z,97250.88
2023-03-24T11:44:38.406Z,97247.31
2023-03-24T11:47:13.036Z,97248.55
2023-03-24T11:50:12.218Z,97242.89
2023-03-24T11:52:55.649Z,97238.31
2023-03-24T11:55:29.155Z,97233.63
2023-03-24T11:58:23.565Z,97233.37
2023-03-24T12:00:59.035Z,97222.31
2023-03-24T12:03:36.273Z,97220.60
2023-03-24T12:06:20.628Z,97217.75
2023-03-24T12:09:11.705Z,97215.80
2023-03-24T12:12:18.831Z,97211.38
2023-03-24T12:15:28.465Z,97208.52
2023-03-24T12:18:26.316Z,97202.00
2023-03-24T12:21:08.007Z,97195.91
2023-03-24T12:24:06.275Z,97190.31
2023-03-24T12:26:35.258Z,97188.80
2023-03-24T12:29:41.762Z,97184.81
2023-03-24T12:32:52.854Z,97183.20
2023-03-24T12:35:28.395Z,97180.20
2023-03-24T12:38:24.302Z,97174.21
2023-03-24T12:41:13.566Z,97173.30
2023-03-24T12:43:51.623Z,97165.75
2023-03-24T12:46:22.784Z,97164.29
2023-03-24T12:49:03.350Z,97162.09
2023-03-24T12:52:15.304Z,97161.45
2023-03-24T12:54:52.139Z,97158.16
2023-03-24T12:57:26.583Z,97154.17
2023-03-24T13:00:01.806Z,97153.65
2023-03-24T13:02:38.505Z,97151.02
2023-03-24T13:05:16.920Z,97149.36
2023-03-24T13:07:54.286Z,97146.64
2023-03-24T13:10:27.258Z,97145.52
2023-03-24T13:12:58.493Z,97142.16
2023-03-24T13:15:46.300Z,97140.35
2023-03-24T13:18:20.443Z,97134.30
2023-03-24T13:21:00.860Z,97133.94
2023-03-24T13:23:56.774Z,97127.05
2023-03-24T13:26:34.390Z,97125.73
2023-03-24T13:29:41.942Z,97118.20
2023-03-24T13:32:24.120Z,97116.69
2023-03-24T13:35:13.946Z,97112.80
2023-03-24T13:37:49.889Z,97107.89
2023-03-24T13:40:25.832Z,97105.41
2023-03-24T13:43:00.166Z,97102.49
2023-03-24T13:45:32.890Z,97098.95
2023-03-24T13:48:10.691Z,97093.86
2023-03-24T13:50:57.340Z,97089.45
2023-03-24T13:53:31.888Z,97083.70
2023-03-24T13:56:01.702Z,97083.10
2023-03-24T13:58:51.128Z,97075.05
2023-03-24T14:01:34.240Z,97075.02
2023-03-24T14:04:23.782Z,97075.83
2023-03-24T14:07:00.489Z,97074.37
2023-03-24T14:09:31.151Z,97070.41
2023-03-24T14:11:59.658Z,97066.43
2023-03-24T14:14:29.544Z,97061.50
2023-03-24T14:17:16.830Z,97062.14
2023-03-24T14:20:10.740Z,97049.79
2023-03-24T14:22:49.844Z,97053.38
2023-03-24T14:25:22.124Z,97046.39
2023-03-24T14:28:15.470Z,97045.42
2023-03-24T14:31:16.271Z,97041.99
2023-03-24T14:33:54.083Z,97040.10
2023-03-24T14:36:27.266Z,97035.16
2023-03-24T14:38:56.210Z,97035.54
2023-03-24T14:41:31.551Z,97032.33
2023-03-24T14:44:01.091Z,97030.97
2023-03-24T14:46:41.271Z,97027.75
2023-03-24T14:49:32.873Z,97025.20
2023-03-24T14:52:20.415Z,97025.23
2023-03-24T14:54:54.207Z,97019.24
2023-03-24T14:57:40.955Z,97018.00
2023-03-24T15:00:21.618Z,97012.16
2023-03-24T15:02:59.123Z,97012.19
2023-03-24T15:05:28.707Z,97010.91
2023-03-24T15:08:21.449Z,97007.11
2023-03-24T15:10:57.009Z,97000.67
2023-03-24T15:13:30.367Z,96999.95
2023-03-24T15:16:00.637Z,97000.91
2023-03-24T15:18:29.107Z,96996.58
2023-03-24T15:20:57.896Z,96994.04
2023-03-24T15:23:28.547Z,96990.83
2023-03-24T15:25:57.132Z,96989.23
2023-03-24T15:28:27.921Z,96989.55
2023-03-24T15:30:59.548Z,96988.40
2023-03-24T15:33:31.288Z,96989.29
2023-03-24T15:36:02.475Z,96985.42
2023-03-24T15:38:33.789Z,96977.89
2023-03-24T15:41:09.626Z,96974.58
2023-03-24T15:43:46.579Z,96978.66
2023-03-24T15:46:30.561Z,96979.13
2023-03-24T15:49:00.434Z,96975.27
2023-03-24T15:51:51.042Z,96975.23
2023-03-24T15:54:32.131Z,96974.87
2023-03-24T15:57:09.554Z,96973.06
2023-03-24T15:59:38.283Z,96968.58
2023-03-24T16:02:34.096Z,96967.84
2023-03-24T16:05:12.762Z,96968.73
2023-03-24T16:07:42.343Z,96964.52
2023-03-24T16:10:33.777Z,96961.45
2023-03-24T16:13:22.091Z,96959.62
2023-03-24T16:16:22.006Z,96958.66
2023-03-24T16:18:51.143Z,96958.56
2023-03-24T16:21:25.462Z,96960.10
2023-03-24T16:23:56.030Z,96955.61
2023-03-24T16:26:26.868Z,96954.42
2023-03-24T16:29:00.740Z,96955.81
2023-03-24T16:31:32.713Z,96959.07
2023-03-24T16:34:01.144Z,96961.02
2023-03-24T16:36:29.647Z,96964.22
2023-03-24T16:39:00.783Z,96965.75
2023-03-24T16:41:29.274Z,96964.20
2023-03-24T16:43:57.443Z,96962.37
2023-03-24T16:46:25.726Z,96963.94
2023-03-24T16:48:54.756Z,96962.63
2023-03-24T16:51:22.990Z,96961.73
2023-03-24T16:53:51.368Z,96960.98
2023-03-24T16:56:22.097Z,96960.09
2023-03-24T16:58:55.387Z,96957.09
2023-03-24T17:01:36.114Z,96956.36
2023-03-24T17:04:10.410Z,96957.70
2023-03-24T17:06:44.379Z,96957.02
2023-03-24T17:09:13.062Z,96958.17
2023-03-24T17:11:46.697Z,96958.77
2023-03-24T17:14:14.969Z,96959.42
2023-03-24T17:16:45.187Z,96959.57
2023-03-24T17:19:18.832Z,96959.27
2023-03-24T17:21:53.510Z,96958.59
2023-03-24T17:24:24.331Z,96959.30
2023-03-24T17:26:53.051Z,96959.02
2023-03-24T17:29:23.013Z,96961.51
2023-03-24T17:31:53.380Z,96961.44
2023-03-24T17:34:22.154Z,96962.61
2023-03-24T17:36:51.816Z,96963.13
2023-03-24T17:39:21.437Z,96961.48
2023-03-24T17:41:50.073Z,96958.28
2023-03-24T17:44:18.707Z,96956.80
2023-03-24T17:46:46.941Z,96959.91
2023-03-24T17:49:14.984Z,96961.91
2023-03-24T17:51:43.416Z,96964.39
2023-03-24T17:54:12.603Z,96964.06
2023-03-24T17:56:41.312Z,96959.39
2023-03-24T17:59:09.389Z,96963.96
2023-03-24T18:01:39.606Z,96962.02
2023-03-24T18:04:08.664Z,96960.23
2023-03-24T18:06:38.670Z,96965.58
2023-03-24T18:09:07.641Z,96968.77
2023-03-24T18:11:36.715Z,96965.77
2023-03-24T18:14:04.932Z,96967.52
2023-03-24T18:16:35.763Z,96965.31
2023-03-24T18:19:04.179Z,96970.48
2023-03-24T18:21:36.298Z,96974.22
2023-03-24T18:24:04.716Z,96978.08
2023-03-24T18:26:33.843Z,96977.92
2023-03-24T18:29:02.070Z,96982.56
2023-03-24T18:31:32.513Z,96988.70
2023-03-24T18:34:01.192Z,96988.28
2023-03-24T18:36:31.316Z,96986.46
2023-03-24T18:39:04.640Z,96989.17
2023-03-24T18:41:37.180Z,96988.88
2023-03-24T18:44:11.893Z,96986.29
2023-03-24T18:46:40.466Z,96987.39
2023-03-24T18:49:13.358Z,96983.38
2023-03-24T18:51:43.644Z,96983.56
2023-03-24T18:54:13.757Z,96983.48
2023-03-24T18:56:42.459Z,96985.61
2023-03-24T18:59:12.400Z,96987.05
2023-03-24T19:01:40.878Z,96983.77
2023-03-24T19:04:09.554Z,96988.92
2023-03-24T19:06:42.499Z,96984.77
2023-03-24T19:09:20.546Z,96987.67
2023-03-24T19:11:49.934Z,96986.98
2023-03-24T19:14:19.001Z,96987.19
2023-03-24T19:16:47.227Z,96981.73
2023-03-24T19:19:18.682Z,96979.55
2023-03-24T19:21:47.483Z,96983.14
2023-03-24T19:24:15.729Z,96976.98
2023-03-24T19:26:43.901Z,96976.73
2023-03-24T19:29:12.078Z,96976.59
2023-03-24T19:31:41.044Z,96973.31
2023-03-24T19:34:09.114Z,96979.09
2023-03-24T19:36:41.763Z,96974.61
2023-03-24T19:39:13.817Z,96974.98
2023-03-24T19:41:42.201Z,96975.48
2023-03-24T19:44:10.580Z,96972.32
2023-03-24T19:46:38.840Z,96973.69
2023-03-24T19:49:07.178Z,96971.33
2023-03-24T19:51:35.558Z,96973.14
2023-03-24T19:54:03.841Z,96971.09
2023-03-24T19:56:31.903Z,96968.00
2023-03-24T19:58:59.936Z,96973.01
2023-03-24T20:01:29.821Z,96969.87
2023-03-24T20:03:58.094Z,96970.89
2023-03-24T20:06:26.484Z,96966.28
2023-03-24T20:08:54.488Z,96964.33
2023-03-24T20:11:22.642Z,96966.30
2023-03-24T20:13:50.862Z,96961.77
2023-03-24T20:16:19.214Z,96963.86
2023-03-24T20:18:47.437Z,96966.86
2023-03-24T20:21:20.655Z,96966.70
2023-03-24T20:23:49.955Z,96969.50
2023-03-24T20:26:20.581Z,96969.30
2023-03-24T20:28:49.308Z,96968.48
2023-03-24T20:31:18.006Z,96968.11
2023-03-24T20:33:46.515Z,96964.41
2023-03-24T20:36:14.686Z,96965.41
2023-03-24T20:38:42.949Z,96963.77
2023-03-24T20:41:11.287Z,96963.92
2023-03-24T20:43:39.562Z,96964.27
2023-03-24T20:46:09.707Z,96961.91
2023-03-24T20:48:38.141Z,96960.01
2023-03-24T20:51:06.597Z,96958.23
2023-03-24T20:53:36.098Z,96953.38
2023-03-24T20:56:07.862Z,96950.84
2023-03-24T20:58:38.102Z,96948.13
2023-03-24T21:01:09.088Z,96945.45
2023-03-24T21:03:37.750Z,96949.48
2023-03-24T21:06:06.227Z,96950.55
2023-03-24T21:08:34.195Z,96944.42
2023-03-24T21:11:02.224Z,96941.54
2023-03-24T21:13:37.182Z,96943.70
2023-03-24T21:16:08.785Z,96941.02
2023-03-24T21:18:38.764Z,96943.04
2023-03-24T21:21:12.752Z,96944.55
2023-03-24T21:23:43.208Z,96944.05
2023-03-24T21:26:18.200Z,96941.25
2023-03-24T21:28:46.665Z,96939.14
2023-03-24T21:31:27.591Z,96938.84
2023-03-24T21:33:57.320Z,96936.63
2023-03-24T21:36:30.144Z,96939.58
2023-03-24T21:38:59.385Z,96938.67
2023-03-24T21:41:29.010Z,96934.55
2023-03-24T21:44:00.845Z,96929.58
2023-03-24T21:46:32.333Z,96924.48
2023-03-24T21:49:01.176Z,96923.09
2023-03-24T21:51:37.027Z,96920.77
2023-03-24T21:54:10.098Z,96920.71
2023-03-24T21:56:38.421Z,96921.15
2023-03-24T21:59:07.135Z,96920.66
2023-03-24T22:01:36.486Z,96917.53
2023-03-24T22:04:05.965Z,96918.75
2023-03-24T22:06:38.140Z,96917.52
2023-03-24T22:09:08.417Z,96910.01
2023-03-24T22:11:37.282Z,96901.50
2023-03-24T22:14:05.505Z,96902.05
2023-03-24T22:16:33.835Z,96903.38
2023-03-24T22:19:01.970Z,96904.00
2023-03-24T22:21:30.233Z,96902.52
2023-03-24T22:23:58.237Z,96904.18
2023-03-24T22:26:26.478Z,96907.95
2023-03-24T22:28:56.360Z,96907.16
2023-03-24T22:31:24.846Z,96911.64
2023-03-24T22:33:53.956Z,96914.87
2023-03-24T22:36:22.214Z,96909.40
2023-03-24T22:38:50.500Z,96909.53
2023-03-24T22:41:18.609Z,96908.95
2023-03-24T22:43:47.226Z,96908.55
2023-03-24T22:46:15.596Z,96908.47
2023-03-24T22:48:44.069Z,96906.86
2023-03-24T22:51:17.105Z,96901.78
2023-03-24T22:53:46.373Z,96893.56
2023-03-24T22:56:15.787Z,96894.11
2023-03-24T22:58:44.268Z,96893.65
2023-03-24T23:01:12.650Z,96889.87
2023-03-24T23:03:41.034Z,96890.11
2023-03-24T23:06:11.271Z,96890.32
2023-03-24T23:08:40.224Z,96889.13
2023-03-24T23:11:12.246Z,96888.80
2023-03-24T23:13:41.687Z,96889.98
2023-03-24T23:16:10.062Z,96884.16
2023-03-24T23:18:38.635Z,96878.31
2023-03-24T23:21:17.394Z,96882.11
2023-03-24T23:23:45.671Z,96877.88
2023-03-24T23:26:26.231Z,96874.68
2023-03-24T23:28:55.271Z,96871.65
2023-03-24T23:31:26.039Z,96867.75
2023-03-24T23:33:56.965Z,96854.25
2023-03-24T23:36:26.592Z,96847.02
2023-03-24T23:38:55.088Z,96842.05
2023-03-24T23:41:24.541Z,96847.23
2023-03-24T23:43:53.784Z,96852.45
2023-03-24T23:46:23.974Z,96855.51
2023-03-24T23:48:52.905Z,96857.33
2023-03-24T23:51:21.400Z,96858.26
2023-03-24T23:53:50.085Z,96860.41
2023-03-24T23:56:21.803Z,96855.46
2023-03-24T23:58:49.968Z,96851.91
